Time;durP1;ratioP1;P1;durP2;ratioP2;P2;SDS_P1;SDS_P2;PMS_P1;PMS_P2;Temp;Humidity;BMP_temperature;BMP_pressure;BME280_temperature;BME280_humidity;BME280_pressure;Samples;Min_cycle;Max_cycle;Signal;HPM_P1;HPM_P2
2021/04/20 04:55:41;;;;;;;;;;;;;;;8.43;90.52;97291.53;1765478;77;20697;-62
2021/04/20 04:58:09;;;;;;;;;;;;;;;8.54;89.25;97295.88;1795026;78;20500;-62
2021/04/20 05:00:37;;;;;;;;;;;;;;;8.60;89.09;97292.28;1779957;79;20541;-63
2021/04/20 05:03:06;;;;;;;;;;;;;;;8.67;88.08;97292.11;1779135;79;20505;-64
2021/04/20 05:05:37;;;;;;;;;;;;;;;8.72;87.82;97295.30;1779118;78;20602;-62
2021/04/20 05:08:05;;;;;;;;;;;;;;;8.77;86.96;97300.62;1803774;78;21841;-62
2021/04/20 05:10:33;;;;;;;;;;;;;;;8.79;86.72;97295.39;1779536;79;20488;-63
2021/04/20 05:13:01;;;;;;;;;;;;;;;8.83;86.59;97298.33;1760871;81;20496;-63
2021/04/20 05:15:29;;;;;;;;;;;;;;;8.87;85.65;97292.86;1798515;78;20609;-62
2021/04/20 05:17:57;;;;;;;;;;;;;;;8.90;85.23;97294.48;1751232;78;20560;-62
2021/04/20 05:20:26;;;;;;;;;;;;;;;8.95;85.38;97293.74;1739688;79;21780;-63
2021/04/20 05:22:55;;;;;;;;;;;;;;;9.01;84.85;97285.69;1764999;79;20558;-63
2021/04/20 05:25:24;;;;;;;;;;;;;;;9.10;84.45;97291.81;1732551;80;20654;-65
2021/04/20 05:27:52;;;;;;;;;;;;;;;9.20;83.57;97293.23;1764006;78;20407;-64
2021/04/20 05:30:21;;;;;;;;;;;;;;;9.27;82.32;97288.59;1771949;79;20856;-69
2021/04/20 05:32:53;;;;;;;;;;;;;;;9.34;81.51;97289.98;1747489;80;20773;-67
2021/04/20 05:35:19;;;;;;;;;;;;;;;9.42;80.63;97290.05;1729006;80;20527;-65
2021/04/20 05:37:47;;;;;;;;;;;;;;;9.48;79.21;97286.95;1767954;79;20531;-62
2021/04/20 05:40:18;;;;;;;;;;;;;;;9.49;80.01;97290.64;1744443;80;20517;-63
2021/04/20 05:42:50;;;;;;;;;;;;;;;9.50;79.07;97288.81;1758264;78;20529;-64
2021/04/20 05:45:18;;;;;;;;;;;;;;;9.51;78.38;97290.41;1784003;78;21820;-61
2021/04/20 05:47:47;;;;;;;;;;;;;;;9.52;78.87;97288.02;1781721;77;20541;-63
2021/04/20 05:50:21;;;;;;;;;;;;;;;9.54;78.23;97291.99;1778661;77;20444;-64
2021/04/20 05:52:49;;;;;;;;;;;;;;;9.57;79.21;97284.95;1773279;78;20563;-64
2021/04/20 05:55:18;;;;;;;;;;;;;;;9.62;79.48;97288.92;1777114;78;20526;-64
2021/04/20 05:57:48;;;;;;;;;;;;;;;9.62;77.60;97292.86;1758265;78;21715;-63
2021/04/20 06:00:17;;;;;;;;;;;;;;;9.59;77.73;97291.23;1725446;80;20538;-62
2021/04/20 06:02:48;;;;;;;;;;;;;;;9.54;76.97;97299.06;1755101;79;20547;-68
2021/04/20 06:05:25;;;;;;;;;;;;;;;9.48;76.86;97302.69;1759869;79;20545;-64
2021/04/20 06:07:54;;;;;;;;;;;;;;;9.40;78.09;97306.03;1761377;78;20719;-62
2021/04/20 06:10:24;;;;;;;;;;;;;;;9.44;79.34;97310.80;1761383;79;20814;-64
2021/04/20 06:12:53;;;;;;;;;;;;;;;9.53;79.99;97306.14;1764799;78;20476;-67
2021/04/20 06:15:22;;;;;;;;;;;;;;;9.64;80.06;97305.73;1718915;81;20510;-63
2021/04/20 06:17:55;;;;;;;;;;;;;;;9.72;79.95;97296.89;1742692;80;20762;-63
2021/04/20 06:20:23;;;;;;;;;;;;;;;9.83;79.67;97299.58;1770718;78;20615;-63
2021/04/20 06:22:53;;;;;;;;;;;;;;;9.88;79.98;97299.09;1781333;78;21938;-61
2021/04/20 06:25:21;;;;;;;;;;;;;;;9.95;78.83;97302.30;1781285;78;20496;-63
2021/04/20 06:27:50;;;;;;;;;;;;;;;10.01;79.53;97307.84;1767027;79;20417;-63
2021/04/20 06:30:20;;;;;;;;;;;;;;;10.09;79.76;97299.51;1756522;79;20543;-63
2021/04/20 06:32:48;;;;;;;;;;;;;;;10.14;78.49;97293.52;1745882;79;22925;-65
2021/04/20 06:35:18;;;;;;;;;;;;;;;10.17;78.03;97294.34;1747550;80;22130;-65
2021/04/20 06:37:47;;;;;;;;;;;;;;;10.19;77.86;97292.27;1749559;80;20469;-65
2021/04/20 06:40:28;;;;;;;;;;;;;;;10.23;78.46;97292.56;1769170;78;20585;-61
2021/04/20 06:42:58;;;;;;;;;;;;;;;10.27;77.83;97293.63;1780337;78;20543;-61
2021/04/20 06:45:32;;;;;;;;;;;;;;;10.29;77.62;97294.17;1772614;80;20772;-64
2021/04/20 06:48:13;;;;;;;;;;;;;;;10.24;77.00;97289.66;1779368;77;22057;-65
2021/04/20 06:50:42;;;;;;;;;;;;;;;10.23;77.43;97288.63;1794387;78;20388;-66
2021/04/20 06:53:16;;;;;;;;;;;;;;;10.22;78.12;97298.86;1745150;80;20389;-63
2021/04/20 06:55:57;;;;;;;;;;;;;;;10.15;77.58;97299.84;1755896;79;20507;-65
2021/04/20 06:58:48;;;;;;;;;;;;;;;10.06;78.18;97299.23;1759236;79;20607;-63
2021/04/20 07:01:22;;;;;;;;;;;;;;;9.99;79.27;97289.47;1761917;79;21884;-68
2021/04/20 07:04:11;;;;;;;;;;;;;;;10.00;79.98;97295.00;1776737;78;20524;-65
2021/04/20 07:07:06;;;;;;;;;;;;;;;10.00;81.90;97297.11;1780733;78;20504;-63
2021/04/20 07:09:34;;;;;;;;;;;;;;;9.96;83.06;97297.31;1759592;78;20585;-66
2021/04/20 07:12:03;;;;;;;;;;;;;;;9.90;83.71;97291.77;1744720;79;20619;-64
2021/04/20 07:14:37;;;;;;;;;;;;;;;9.88;83.09;97304.86;1758467;79;21878;-63
2021/04/20 07:17:20;;;;;;;;;;;;;;;9.85;83.58;97299.61;1741238;80;20490;-63
2021/04/20 07:20:25;;;;;;;;;;;;;;;9.84;83.42;97296.71;1765695;79;20708;-62
2021/04/20 07:23:17;;;;;;;;;;;;;;;9.85;83.64;97292.25;1761693;79;20509;-65
2021/04/20 07:26:16;;;;;;;;;;;;;;;9.85;84.59;97285.69;1733025;80;20507;-66
2021/04/20 07:28:53;;;;;;;;;;;;;;;9.87;84.46;97288.31;1763500;79;21729;-66
2021/04/20 07:31:37;;;;;;;;;;;;;;;9.83;84.79;97283.31;1719073;80;20479;-63
2021/04/20 07:34:28;;;;;;;;;;;;;;;9.83;84.53;97289.08;1758840;79;20511;-69
2021/04/20 07:37:12;;;;;;;;;;;;;;;9.80;85.22;97289.05;1742734;79;20489;-63
2021/04/20 07:39:55;;;;;;;;;;;;;;;9.76;86.72;97294.02;1744973;80;20485;-65
2021/04/20 07:43:00;;;;;;;;;;;;;;;9.69;88.76;97298.69;1764883;78;21962;-65
2021/04/20 07:45:44;;;;;;;;;;;;;;;9.50;87.80;97302.72;1711701;81;20531;-64
2021/04/20 07:48:21;;;;;;;;;;;;;;;9.21;86.02;97298.77;1736709;80;20490;-68
2021/04/20 07:50:58;;;;;;;;;;;;;;;8.96;87.17;97295.33;1748755;79;20573;-66
2021/04/20 07:53:32;;;;;;;;;;;;;;;8.80;86.64;97290.94;1742084;80;20595;-66
2021/04/20 07:56:09;;;;;;;;;;;;;;;8.65;88.03;97293.38;1743386;80;22059;-67
2021/04/20 07:58:40;;;;;;;;;;;;;;;8.55;89.09;97290.13;1721940;81;20484;-70
2021/04/20 08:01:20;;;;;;;;;;;;;;;8.53;90.87;97281.20;1781322;78;20400;-67
2021/04/20 08:04:01;;;;;;;;;;;;;;;8.58;92.42;97273.39;1770387;79;20517;-66
2021/04/20 08:06:29;;;;;;;;;;;;;;;8.70;91.60;97270.67;1737409;79;20503;-65
2021/04/20 08:08:58;;;;;;;;;;;;;;;8.86;92.04;97290.75;1770114;78;21918;-64
2021/04/20 08:11:48;;;;;;;;;;;;;;;9.01;92.44;97283.06;1747178;80;20480;-66
2021/04/20 08:14:28;;;;;;;;;;;;;;;9.21;95.73;97287.75;1738215;79;20313;-63
2021/04/20 08:17:08;;;;;;;;;;;;;;;9.46;96.36;97289.02;1758655;79;20384;-64
2021/04/20 08:19:40;;;;;;;;;;;;;;;9.65;95.40;97287.09;1762808;79;20781;-66
2021/04/20 08:22:08;;;;;;;;;;;;;;;9.78;92.63;97291.95;1748323;80;22009;-65
2021/04/20 08:24:38;;;;;;;;;;;;;;;9.85;92.81;97289.11;1730250;80;20471;-65
2021/04/20 08:27:18;;;;;;;;;;;;;;;9.89;92.51;97282.30;1734681;80;20505;-65
2021/04/20 08:29:47;;;;;;;;;;;;;;;10.00;93.46;97283.98;1740680;80;20854;-63
2021/04/20 08:32:21;;;;;;;;;;;;;;;10.15;91.25;97281.98;1751811;80;20781;-61
2021/04/20 08:35:01;;;;;;;;;;;;;;;10.29;88.45;97284.98;1722585;80;22009;-61
2021/04/20 08:37:36;;;;;;;;;;;;;;;10.43;86.66;97285.59;1774337;79;20504;-64
2021/04/20 08:40:14;;;;;;;;;;;;;;;10.63;84.70;97282.27;1773847;78;20576;-63
2021/04/20 08:43:06;;;;;;;;;;;;;;;10.83;83.10;97282.34;1764374;78;20487;-62
2021/04/20 08:45:59;;;;;;;;;;;;;;;10.96;80.11;97281.06;1769947;79;20483;-62
2021/04/20 08:49:01;;;;;;;;;;;;;;;10.99;79.50;97277.14;1776851;78;21852;-65
2021/04/20 08:51:52;;;;;;;;;;;;;;;11.08;77.19;97278.23;1748998;80;20545;-65
2021/04/20 08:54:38;;;;;;;;;;;;;;;11.22;77.26;97282.73;1749602;80;20617;-64
2021/04/20 08:57:42;;;;;;;;;;;;;;;11.37;77.41;97278.03;1744860;79;20505;-63
2021/04/20 09:00:41;;;;;;;;;;;;;;;11.54;76.98;97279.87;1732737;81;20640;-63
2021/04/20 09:03:35;;;;;;;;;;;;;;;11.75;76.34;97279.39;1771068;78;22493;-64
2021/04/20 09:06:07;;;;;;;;;;;;;;;11.91;74.78;97275.70;1732897;79;20330;-63
2021/04/20 09:08:37;;;;;;;;;;;;;;;11.98;71.75;97273.59;1760329;80;20570;-62
2021/04/20 09:11:10;;;;;;;;;;;;;;;11.94;72.65;97274.40;1733312;80;20572;-62
2021/04/20 09:13:59;;;;;;;;;;;;;;;11.84;72.83;97272.55;1777164;78;20579;-62
2021/04/20 09:16:35;;;;;;;;;;;;;;;11.76;73.50;97273.60;1739288;80;39972;-62
2021/04/20 09:19:03;;;;;;;;;;;;;;;11.70;73.48;97262.25;1771726;78;20594;-67
2021/04/20 09:21:45;;;;;;;;;;;;;;;11.70;73.00;97263.58;1773516;78;20626;-67
2021/04/20 09:24:18;;;;;;;;;;;;;;;11.72;73.21;97253.05;1768507;78;20583;-65
2021/04/20 09:26:54;;;;;;;;;;;;;;;11.86;73.26;97247.28;1760142;80;20942;-66
2021/04/20 09:29:30;;;;;;;;;;;;;;;12.00;74.36;97241.20;1730491;80;21921;-63
2021/04/20 09:32:00;;;;;;;;;;;;;;;12.21;73.09;97241.95;1769253;78;20618;-65
2021/04/20 09:34:38;;;;;;;;;;;;;;;12.42;72.13;97236.09;1760985;78;20404;-63
2021/04/20 09:37:06;;;;;;;;;;;;;;;12.66;72.65;97234.44;1740822;80;20398;-65
2021/04/20 09:39:38;;;;;;;;;;;;;;;12.97;68.80;97229.78;1739295;80;20571;-65
2021/04/20 09:42:07;;;;;;;;;;;;;;;13.16;68.08;97231.31;1737496;80;20733;-65
2021/04/20 09:44:45;;;;;;;;;;;;;;;13.25;68.56;97219.13;1740279;80;20305;-64
2021/04/20 09:47:44;;;;;;;;;;;;;;;13.37;68.26;97224.04;1737039;80;20620;-66
2021/04/20 09:50:24;;;;;;;;;;;;;;;13.44;65.56;97221.88;1737936;80;20720;-63
2021/04/20 09:53:20;;;;;;;;;;;;;;;13.47;65.95;97214.73;1732527;80;20572;-64
2021/04/20 09:55:56;;;;;;;;;;;;;;;13.39;63.38;97214.80;1721629;81;20742;-62
2021/04/20 09:58:24;;;;;;;;;;;;;;;13.32;64.83;97218.28;1723298;81;20586;-63
2021/04/20 10:00:53;;;;;;;;;;;;;;;13.29;65.68;97210.89;1721390;81;20732;-61
2021/04/20 10:03:41;;;;;;;;;;;;;;;13.27;64.79;97211.70;1711113;81;20648;-64
2021/04/20 10:06:20;;;;;;;;;;;;;;;13.26;64.11;97204.84;1707802;81;20602;-65
2021/04/20 10:09:21;;;;;;;;;;;;;;;13.30;60.79;97205.88;1719356;81;21942;-71
2021/04/20 10:11:55;;;;;;;;;;;;;;;13.23;59.57;97211.47;1718230;81;20473;-64
2021/04/20 10:14:42;;;;;;;;;;;;;;;13.13;60.41;97226.56;1726283;81;20599;-62
2021/04/20 10:17:26;;;;;;;;;;;;;;;12.90;61.41;97215.58;1718881;80;20597;-63
2021/04/20 10:20:22;;;;;;;;;;;;;;;12.65;61.12;97227.58;1724315;80;20471;-62
2021/04/20 10:22:56;;;;;;;;;;;;;;;12.48;62.21;97223.16;1721512;80;20882;-65
2021/04/20 10:25:36;;;;;;;;;;;;;;;12.34;63.16;97221.63;1721525;80;20548;-69
2021/04/20 10:28:31;;;;;;;;;;;;;;;12.22;64.18;97233.52;1721086;80;20269;-64
2021/04/20 10:31:02;;;;;;;;;;;;;;;12.04;65.18;97225.13;1730824;80;20553;-63
2021/04/20 10:33:30;;;;;;;;;;;;;;;11.88;65.44;97237.28;1696056;82;20309;-63
2021/04/20 10:35:59;;;;;;;;;;;;;;;11.77;65.73;97229.11;1724516;80;20817;-67
2021/04/20 10:38:30;;;;;;;;;;;;;;;11.72;66.63;97226.73;1773534;79;20465;-67
2021/04/20 10:40:57;;;;;;;;;;;;;;;11.80;67.02;97216.75;1727635;81;20484;-69
2021/04/20 10:43:28;;;;;;;;;;;;;;;11.92;66.84;97219.36;1711046;82;20494;-67
2021/04/20 10:45:55;;;;;;;;;;;;;;;12.09;66.90;97221.18;1733968;81;21007;-67
2021/04/20 10:48:24;;;;;;;;;;;;;;;12.24;66.66;97226.16;1771869;78;21849;-67
2021/04/20 10:50:55;;;;;;;;;;;;;;;12.29;65.45;97222.17;1725268;81;20612;-62
2021/04/20 10:53:25;;;;;;;;;;;;;;;12.30;64.21;97227.19;1731419;81;20451;-62
2021/04/20 10:56:06;;;;;;;;;;;;;;;12.31;65.53;97223.50;1708837;82;20507;-64
2021/04/20 10:58:35;;;;;;;;;;;;;;;12.38;64.70;97231.91;1714432;82;20607;-65
2021/04/20 11:01:04;;;;;;;;;;;;;;;12.41;63.90;97223.45;1714463;80;21913;-66
2021/04/20 11:03:35;;;;;;;;;;;;;;;12.50;64.94;97213.14;1724750;81;20442;-64
2021/04/20 11:06:03;;;;;;;;;;;;;;;12.74;66.36;97217.27;1724531;81;20667;-69
2021/04/20 11:08:38;;;;;;;;;;;;;;;12.98;64.83;97216.86;1727040;81;20518;-66
2021/04/20 11:11:19;;;;;;;;;;;;;;;13.10;63.13;97216.55;1708856;82;20792;-62
2021/04/20 11:13:48;;;;;;;;;;;;;;;13.07;62.45;97220.51;1739802;79;22068;-67
2021/04/20 11:16:28;;;;;;;;;;;;;;;12.88;60.65;97220.89;1754087;80;20825;-67
2021/04/20 11:19:06;;;;;;;;;;;;;;;12.73;60.69;97234.94;1751086;79;20609;-65
2021/04/20 11:21:36;;;;;;;;;;;;;;;12.61;60.72;97231.01;1748380;79;20494;-68
2021/04/20 11:24:19;;;;;;;;;;;;;;;12.53;61.47;97235.02;1752050;79;20580;-64
2021/04/20 11:26:58;;;;;;;;;;;;;;;12.54;61.41;97233.94;1758798;79;22477;-65
2021/04/20 11:29:32;;;;;;;;;;;;;;;12.59;60.21;97229.98;1749639;80;21081;-67
2021/04/20 11:32:00;;;;;;;;;;;;;;;12.67;60.83;97226.80;1732569;81;20618;-67
2021/04/20 11:34:28;;;;;;;;;;;;;;;12.79;62.49;97221.19;1691429;82;20418;-62
2021/04/20 11:37:05;;;;;;;;;;;;;;;12.93;63.24;97223.49;1704275;82;20795;-66
2021/04/20 11:39:40;;;;;;;;;;;;;;;13.06;63.58;97226.05;1737495;80;22119;-68
2021/04/20 11:42:23;;;;;;;;;;;;;;;13.12;64.47;97220.47;1745761;80;20723;-68
2021/04/20 11:44:49;;;;;;;;;;;;;;;13.17;65.47;97220.48;1740449;80;20415;-66
2021/04/20 11:47:17;;;;;;;;;;;;;;;13.25;66.42;97213.84;1726321;81;20700;-66
2021/04/20 11:49:51;;;;;;;;;;;;;;;13.36;66.35;97208.73;1731960;80;20643;-66
2021/04/20 11:52:22;;;;;;;;;;;;;;;13.43;64.87;97202.61;1739374;79;22007;-64
2021/04/20 11:54:56;;;;;;;;;;;;;;;13.40;63.99;97205.79;1745086;79;20593;-69
2021/04/20 11:57:24;;;;;;;;;;;;;;;13.27;64.01;97206.42;1768333;79;20503;-66
2021/04/20 11:59:53;;;;;;;;;;;;;;;13.12;64.05;97202.00;1772678;78;20519;-66
2021/04/20 12:02:29;;;;;;;;;;;;;;;13.03;64.39;97203.66;1762396;79;20500;-66
2021/04/20 12:05:10;;;;;;;;;;;;;;;12.90;64.77;97208.20;1769374;78;20786;-66
2021/04/20 12:07:38;;;;;;;;;;;;;;;12.83;65.58;97209.02;1764988;79;20634;-68
2021/04/20 12:10:07;;;;;;;;;;;;;;;12.76;65.35;97203.27;1759984;79;20502;-64
2021/04/20 12:12:35;;;;;;;;;;;;;;;12.67;65.94;97211.50;1757921;79;20260;-61
2021/04/20 12:15:06;;;;;;;;;;;;;;;12.56;66.60;97213.91;1756337;79;20575;-63
2021/04/20 12:17:39;;;;;;;;;;;;;;;12.52;67.13;97217.63;1758836;79;22047;-68
2021/04/20 12:20:10;;;;;;;;;;;;;;;12.47;67.64;97206.55;1763470;79;20579;-63
2021/04/20 12:22:37;;;;;;;;;;;;;;;12.42;67.59;97211.85;1735743;79;20492;-67
2021/04/20 12:25:09;;;;;;;;;;;;;;;12.37;67.12;97216.36;1751955;79;20522;-68
2021/04/20 12:27:39;;;;;;;;;;;;;;;12.33;67.46;97217.94;1752483;79;20630;-67
2021/04/20 12:30:11;;;;;;;;;;;;;;;12.28;66.73;97216.12;1755958;79;22407;-65
2021/04/20 12:32:41;;;;;;;;;;;;;;;12.17;66.76;97215.90;1743132;80;20506;-64
2021/04/20 12:35:10;;;;;;;;;;;;;;;12.09;68.27;97207.22;1764417;79;20508;-66
2021/04/20 12:37:38;;;;;;;;;;;;;;;12.10;69.79;97205.61;1740287;79;20502;-67
2021/04/20 12:40:09;;;;;;;;;;;;;;;12.11;69.96;97201.92;1762671;79;20619;-64
2021/04/20 12:42:43;;;;;;;;;;;;;;;12.13;69.78;97199.03;1757441;79;20574;-63
2021/04/20 12:45:13;;;;;;;;;;;;;;;12.05;70.54;97195.09;1756076;79;20585;-67
2021/04/20 12:47:41;;;;;;;;;;;;;;;12.09;71.08;97199.32;1760286;79;20308;-65
2021/04/20 12:50:12;;;;;;;;;;;;;;;12.11;71.78;97191.39;1756967;81;20516;-66
2021/04/20 12:52:41;;;;;;;;;;;;;;;12.19;71.86;97184.78;1749675;78;21006;-65
2021/04/20 12:55:14;;;;;;;;;;;;;;;12.22;71.63;97182.95;1783601;78;20548;-67
2021/04/20 12:57:43;;;;;;;;;;;;;;;12.28;71.74;97181.08;1788662;78;20530;-65
2021/04/20 13:00:22;;;;;;;;;;;;;;;12.31;71.89;97182.66;1785079;79;20494;-64
2021/04/20 13:02:52;;;;;;;;;;;;;;;12.34;71.92;97178.67;1732080;80;20594;-65
2021/04/20 13:05:33;;;;;;;;;;;;;;;12.37;71.56;97184.73;1724352;80;20832;-65
2021/04/20 13:08:12;;;;;;;;;;;;;;;12.36;71.68;97185.27;1735178;80;21841;-63
2021/04/20 13:10:42;;;;;;;;;;;;;;;12.35;71.46;97186.32;1724233;80;20455;-75
2021/04/20 13:13:12;;;;;;;;;;;;;;;12.29;70.59;97183.45;1725452;81;20583;-72
2021/04/20 13:15:48;;;;;;;;;;;;;;;12.29;70.52;97182.66;1727733;80;20704;-64
2021/04/20 13:18:26;;;;;;;;;;;;;;;12.31;70.46;97183.98;1726967;81;20598;-66
2021/04/20 13:21:13;;;;;;;;;;;;;;;12.35;70.21;97190.80;1714145;81;20715;-66
2021/04/20 13:23:43;;;;;;;;;;;;;;;12.35;69.92;97193.43;1727743;81;20488;-67
2021/04/20 13:26:14;;;;;;;;;;;;;;;12.35;69.54;97197.39;1720382;81;20517;-66
2021/04/20 13:29:00;;;;;;;;;;;;;;;12.35;69.17;97199.49;1729775;80;20272;-69
2021/04/20 13:31:52;;;;;;;;;;;;;;;12.33;69.27;97197.65;1737691;79;20590;-65
2021/04/20 13:34:28;;;;;;;;;;;;;;;12.29;68.76;97204.53;1726974;81;21772;-64
2021/04/20 13:37:01;;;;;;;;;;;;;;;12.27;67.39;97205.31;1724307;81;20363;-63
2021/04/20 13:39:37;;;;;;;;;;;;;;;12.23;66.75;97207.45;1724624;81;20529;-69
2021/04/20 13:42:19;;;;;;;;;;;;;;;12.20;67.03;97214.03;1776623;79;20566;-63
2021/04/20 13:44:54;;;;;;;;;;;;;;;12.18;67.63;97212.19;1764733;79;20559;-65
2021/04/20 13:47:22;;;;;;;;;;;;;;;12.18;68.36;97216.13;1758943;79;21883;-64
2021/04/20 13:49:52;;;;;;;;;;;;;;;12.19;68.69;97219.56;1757819;79;20568;-63
2021/04/20 13:52:23;;;;;;;;;;;;;;;12.14;70.23;97224.32;1768145;79;20631;-63
2021/04/20 13:54:52;;;;;;;;;;;;;;;11.99;70.06;97224.34;1718062;81;20711;-67
2021/04/20 13:57:26;;;;;;;;;;;;;;;11.76;69.43;97223.58;1710857;81;20581;-64
2021/04/20 13:59:55;;;;;;;;;;;;;;;11.53;69.37;97224.34;1767506;79;21859;-61
2021/04/20 14:02:23;;;;;;;;;;;;;;;11.36;69.66;97222.52;1773647;78;20641;-61
2021/04/20 14:04:58;;;;;;;;;;;;;;;11.21;69.99;97225.91;1775215;79;20548;-63
